Time;durP1;ratioP1;P1;durP2;ratioP2;P2;SDS_P1;SDS_P2;PMS_P1;PMS_P2;Temp;Humidity;BMP_temperature;BMP_pressure;BME280_temperature;BME280_humidity;BME280_pressure;Samples;Min_cycle;Max_cycle;Signal;HPM_P1;HPM_P2
2024/01/02 00:01:55;;;;;;;41.53;38.85;;;;;;;;;;5061785;28;20045;-75
2024/01/02 00:04:25;;;;;;;44.25;41.38;;;;;;;;;;5061734;28;20518;-78
2024/01/02 00:06:56;;;;;;;45.13;42.13;;;;;;;;;;5062520;28;20056;-74
2024/01/02 00:09:27;;;;;;;47.88;44.67;;;;;;;;;;5062260;28;20491;-75
2024/01/02 00:11:58;;;;;;;47.25;44.03;;;;;;;;;;5062296;28;21038;-73
2024/01/02 00:14:29;;;;;;;48.25;44.80;;;;;;;;;;5059222;28;20056;-75
2024/01/02 00:16:59;;;;;;;47.38;44.25;;;;;;;;;;5061435;28;20055;-75
2024/01/02 00:19:29;;;;;;;47.65;44.65;;;;;;;;;;5061801;28;20423;-79
2024/01/02 00:22:00;;;;;;;51.83;48.55;;;;;;;;;;5061158;28;20040;-74
2024/01/02 00:24:31;;;;;;;51.20;48.03;;;;;;;;;;5061809;28;20519;-75
2024/01/02 00:27:02;;;;;;;58.40;54.58;;;;;;;;;;5062644;28;20059;-78
2024/01/02 00:29:33;;;;;;;61.08;57.30;;;;;;;;;;5061481;28;20548;-74
2024/01/02 00:32:04;;;;;;;55.22;51.70;;;;;;;;;;5061078;28;20507;-75
2024/01/02 00:34:35;;;;;;;55.70;52.10;;;;;;;;;;5059012;28;20064;-75
2024/01/02 00:37:05;;;;;;;53.15;49.45;;;;;;;;;;5061498;28;20044;-75
2024/01/02 00:39:35;;;;;;;55.97;52.42;;;;;;;;;;5060072;28;20056;-74
2024/01/02 00:42:06;;;;;;;50.00;46.92;;;;;;;;;;5061990;28;20052;-75
2024/01/02 00:44:40;;;;;;;46.05;43.05;;;;;;;;;;5061246;28;20040;-74
2024/01/02 00:47:11;;;;;;;49.67;45.90;;;;;;;;;;5060714;28;20055;-75
2024/01/02 00:49:41;;;;;;;48.25;44.95;;;;;;;;;;5061152;28;20045;-75
2024/01/02 00:52:11;;;;;;;52.63;48.95;;;;;;;;;;5060351;28;20488;-75
2024/01/02 00:54:44;;;;;;;50.17;46.85;;;;;;;;;;5059693;28;20049;-78
2024/01/02 00:57:16;;;;;;;47.15;43.90;;;;;;;;;;5060841;28;20053;-74
2024/01/02 00:59:47;;;;;;;53.80;50.10;;;;;;;;;;5060929;28;20055;-74
2024/01/02 01:02:17;;;;;;;53.13;49.67;;;;;;;;;;5060524;28;20499;-75
2024/01/02 01:04:47;;;;;;;51.70;48.15;;;;;;;;;;5062531;28;20047;-74
2024/01/02 01:07:19;;;;;;;51.85;48.35;;;;;;;;;;5065966;28;20099;-74
2024/01/02 01:09:49;;;;;;;54.33;50.55;;;;;;;;;;5065276;28;20040;-74
2024/01/02 01:12:19;;;;;;;53.90;50.47;;;;;;;;;;5065131;28;20075;-75
2024/01/02 01:14:50;;;;;;;50.67;47.33;;;;;;;;;;5064960;28;20048;-75
2024/01/02 01:17:22;;;;;;;49.15;45.58;;;;;;;;;;5064873;28;20052;-74
2024/01/02 01:19:53;;;;;;;50.28;46.90;;;;;;;;;;5063881;28;20040;-74
2024/01/02 01:22:23;;;;;;;50.25;46.45;;;;;;;;;;5065107;28;20050;-76
2024/01/02 01:24:54;;;;;;;49.13;46.05;;;;;;;;;;5064629;28;20051;-75
2024/01/02 01:27:25;;;;;;;58.88;54.83;;;;;;;;;;5063926;28;20036;-74
2024/01/02 01:29:55;;;;;;;58.08;54.40;;;;;;;;;;5063292;28;20063;-75
2024/01/02 01:32:27;;;;;;;56.67;53.35;;;;;;;;;;5064834;28;20049;-75
2024/01/02 01:34:59;;;;;;;56.85;53.53;;;;;;;;;;5064181;28;20526;-75
2024/01/02 01:37:30;;;;;;;58.97;55.22;;;;;;;;;;5064559;28;20068;-75
2024/01/02 01:40:02;;;;;;;56.60;52.88;;;;;;;;;;5062990;28;20044;-75
2024/01/02 01:42:31;;;;;;;60.80;56.88;;;;;;;;;;5064130;28;20060;-74
2024/01/02 01:45:02;;;;;;;61.53;57.80;;;;;;;;;;5062428;28;20056;-73
2024/01/02 01:47:34;;;;;;;57.78;53.97;;;;;;;;;;5064338;28;20438;-75
2024/01/02 01:50:05;;;;;;;58.10;53.80;;;;;;;;;;5064845;28;20044;-75
2024/01/02 01:52:36;;;;;;;54.60;51.15;;;;;;;;;;5064857;28;20044;-74
2024/01/02 01:55:07;;;;;;;58.70;55.13;;;;;;;;;;5064719;28;20055;-75
2024/01/02 01:57:38;;;;;;;54.65;50.55;;;;;;;;;;5063170;28;20044;-74
2024/01/02 02:00:12;;;;;;;56.03;52.78;;;;;;;;;;5063220;28;20415;-74
2024/01/02 02:02:43;;;;;;;55.33;51.53;;;;;;;;;;5063379;28;20056;-75
2024/01/02 02:05:16;;;;;;;55.78;52.00;;;;;;;;;;5062827;28;20099;-75
2024/01/02 02:07:46;;;;;;;60.85;57.25;;;;;;;;;;5064312;28;20051;-74
2024/01/02 02:10:18;;;;;;;55.00;51.10;;;;;;;;;;5062549;28;20139;-74
2024/01/02 02:12:48;;;;;;;59.28;55.67;;;;;;;;;;5064051;28;20048;-75
2024/01/02 02:15:19;;;;;;;55.97;52.58;;;;;;;;;;5046510;28;20067;-75
2024/01/02 02:17:49;;;;;;;53.33;50.17;;;;;;;;;;5061971;28;20056;-74
2024/01/02 02:20:21;;;;;;;54.35;50.88;;;;;;;;;;5063304;28;20640;-74
2024/01/02 02:22:52;;;;;;;56.15;52.72;;;;;;;;;;5062915;28;20048;-74
2024/01/02 02:25:22;;;;;;;51.75;48.47;;;;;;;;;;5062392;28;20052;-74
2024/01/02 02:27:54;;;;;;;52.15;49.03;;;;;;;;;;5064597;28;20674;-74
2024/01/02 02:30:28;;;;;;;62.88;58.45;;;;;;;;;;5063742;28;20049;-74
2024/01/02 02:32:58;;;;;;;59.13;55.60;;;;;;;;;;5062351;28;20053;-74
2024/01/02 02:35:29;;;;;;;62.60;58.78;;;;;;;;;;5063949;28;20060;-74
2024/01/02 02:37:59;;;;;;;56.78;53.45;;;;;;;;;;5062472;28;20059;-75
2024/01/02 02:40:30;;;;;;;59.35;55.50;;;;;;;;;;5062409;28;20522;-74
2024/01/02 02:43:01;;;;;;;56.10;52.70;;;;;;;;;;5064268;28;20060;-74
2024/01/02 02:45:34;;;;;;;63.35;59.63;;;;;;;;;;5062530;28;20056;-74
2024/01/02 02:48:05;;;;;;;54.47;50.88;;;;;;;;;;5063535;28;20044;-74
2024/01/02 02:50:39;;;;;;;57.45;53.95;;;;;;;;;;5063804;28;20047;-75
2024/01/02 02:53:10;;;;;;;62.15;58.08;;;;;;;;;;5062689;28;20064;-75
2024/01/02 02:55:40;;;;;;;62.97;59.08;;;;;;;;;;5061316;28;20056;-75
2024/01/02 02:58:11;;;;;;;53.97;50.72;;;;;;;;;;5062482;28;20813;-74
2024/01/02 03:00:42;;;;;;;54.15;50.85;;;;;;;;;;5063305;28;20044;-74
2024/01/02 03:03:14;;;;;;;57.08;53.60;;;;;;;;;;5061665;28;20629;-75
2024/01/02 03:05:44;;;;;;;57.90;54.25;;;;;;;;;;5063449;28;20048;-75
2024/01/02 03:08:15;;;;;;;56.28;52.88;;;;;;;;;;5062774;28;20517;-75
2024/01/02 03:10:50;;;;;;;58.97;55.30;;;;;;;;;;5063109;28;20044;-74
2024/01/02 03:13:20;;;;;;;53.05;49.75;;;;;;;;;;5062644;28;20052;-74
2024/01/02 03:15:50;;;;;;;54.47;50.92;;;;;;;;;;5062576;28;20045;-75
2024/01/02 03:18:21;;;;;;;52.53;48.97;;;;;;;;;;5063218;28;20048;-74
2024/01/02 03:20:52;;;;;;;53.13;49.63;;;;;;;;;;5060933;28;20041;-75
2024/01/02 03:23:23;;;;;;;46.65;43.47;;;;;;;;;;5058452;28;20049;-75
2024/01/02 03:25:53;;;;;;;48.50;45.35;;;;;;;;;;5059702;28;20044;-74
2024/01/02 03:28:23;;;;;;;45.72;42.42;;;;;;;;;;5057439;28;20534;-75
2024/01/02 03:30:54;;;;;;;46.53;43.47;;;;;;;;;;5059845;28;20055;-74
2024/01/02 03:33:25;;;;;;;43.55;40.85;;;;;;;;;;5059173;28;20052;-75
2024/01/02 03:35:55;;;;;;;41.60;38.97;;;;;;;;;;5059399;28;20908;-74
2024/01/02 03:38:26;;;;;;;42.88;39.78;;;;;;;;;;5060054;28;20522;-75
2024/01/02 03:40:56;;;;;;;45.72;42.85;;;;;;;;;;5059661;28;20045;-74
2024/01/02 03:43:28;;;;;;;40.25;37.50;;;;;;;;;;5059199;28;20055;-74
2024/01/02 03:45:58;;;;;;;39.13;36.30;;;;;;;;;;5059029;28;20051;-74
2024/01/02 03:48:28;;;;;;;36.72;34.40;;;;;;;;;;5060003;28;20055;-74
2024/01/02 03:51:02;;;;;;;44.38;41.28;;;;;;;;;;5059285;28;20055;-74
2024/01/02 03:53:33;;;;;;;40.20;37.45;;;;;;;;;;5059622;28;20435;-74
2024/01/02 03:56:03;;;;;;;42.67;39.92;;;;;;;;;;5059305;28;20055;-74
2024/01/02 03:58:33;;;;;;;34.70;32.30;;;;;;;;;;5058691;28;20443;-74
2024/01/02 04:01:04;;;;;;;37.95;35.42;;;;;;;;;;5059084;28;20056;-74
2024/01/02 04:03:35;;;;;;;38.97;36.30;;;;;;;;;;5059267;28;20098;-75
2024/01/02 04:06:05;;;;;;;35.22;32.45;;;;;;;;;;5059029;28;20048;-74
2024/01/02 04:08:38;;;;;;;31.23;29.20;;;;;;;;;;5059077;28;20059;-74
2024/01/02 04:11:13;;;;;;;31.52;29.35;;;;;;;;;;5058789;28;20048;-75
2024/01/02 04:13:44;;;;;;;37.20;34.42;;;;;;;;;;5059499;28;20044;-74
2024/01/02 04:16:14;;;;;;;35.90;32.88;;;;;;;;;;5058756;28;20055;-74
2024/01/02 04:18:45;;;;;;;34.72;32.05;;;;;;;;;;5058379;28;20052;-74
2024/01/02 04:21:16;;;;;;;35.28;32.63;;;;;;;;;;5058458;28;20060;-75
2024/01/02 04:23:46;;;;;;;35.78;33.05;;;;;;;;;;5057163;28;20048;-74
2024/01/02 04:26:17;;;;;;;30.45;28.20;;;;;;;;;;5059052;28;20411;-74
2024/01/02 04:28:47;;;;;;;38.40;35.60;;;;;;;;;;5059281;28;20048;-75
2024/01/02 04:31:17;;;;;;;35.50;32.95;;;;;;;;;;5059062;28;20051;-74
2024/01/02 04:33:49;;;;;;;32.72;30.48;;;;;;;;;;5058816;28;20590;-74
2024/01/02 04:36:19;;;;;;;40.10;37.17;;;;;;;;;;5059105;28;20072;-74
2024/01/02 04:38:49;;;;;;;39.08;36.55;;;;;;;;;;5059749;28;20053;-74
2024/01/02 04:41:22;;;;;;;42.35;39.60;;;;;;;;;;5065938;28;20063;-74
2024/01/02 04:43:53;;;;;;;47.80;44.63;;;;;;;;;;5064934;28;20048;-74
2024/01/02 04:46:23;;;;;;;48.92;45.55;;;;;;;;;;5065783;28;20056;-75
2024/01/02 04:48:56;;;;;;;49.47;46.30;;;;;;;;;;5066353;28;20055;-74
2024/01/02 04:51:28;;;;;;;51.95;48.53;;;;;;;;;;5065861;28;20423;-74
2024/01/02 04:53:59;;;;;;;53.97;50.65;;;;;;;;;;5065641;28;20606;-74
2024/01/02 04:56:29;;;;;;;52.42;49.15;;;;;;;;;;5065705;28;20045;-75
2024/01/02 04:59:00;;;;;;;65.20;61.33;;;;;;;;;;5065753;28;20415;-74
2024/01/02 05:01:31;;;;;;;64.47;60.30;;;;;;;;;;5068117;28;20055;-74
2024/01/02 05:04:03;;;;;;;67.65;63.50;;;;;;;;;;5067593;28;20566;-74
2024/01/02 05:06:34;;;;;;;65.53;61.20;;;;;;;;;;5067137;28;20407;-74
2024/01/02 05:09:04;;;;;;;67.32;63.25;;;;;;;;;;5066333;28;20043;-74
2024/01/02 05:11:37;;;;;;;64.65;60.55;;;;;;;;;;5067494;28;20071;-74
2024/01/02 05:14:08;;;;;;;69.47;65.43;;;;;;;;;;5066503;28;20889;-75
2024/01/02 05:16:39;;;;;;;64.18;60.22;;;;;;;;;;5064010;28;20652;-74
2024/01/02 05:19:09;;;;;;;64.50;60.40;;;;;;;;;;5065257;28;20063;-74
2024/01/02 05:21:39;;;;;;;65.90;61.92;;;;;;;;;;5063275;28;20056;-74
2024/01/02 05:24:11;;;;;;;57.80;53.55;;;;;;;;;;5065067;28;20119;-74
2024/01/02 05:26:41;;;;;;;67.28;63.05;;;;;;;;;;5065066;28;20048;-74
2024/01/02 05:29:11;;;;;;;63.63;59.40;;;;;;;;;;5065630;28;20044;-74
2024/01/02 05:31:42;;;;;;;60.13;56.40;;;;;;;;;;5065088;28;20877;-74
2024/01/02 05:34:13;;;;;;;53.78;50.08;;;;;;;;;;5064956;28;20036;-74
2024/01/02 05:36:45;;;;;;;58.45;54.38;;;;;;;;;;5064886;28;20052;-74
2024/01/02 05:39:16;;;;;;;55.95;52.38;;;;;;;;;;5064865;28;20047;-75
2024/01/02 05:41:46;;;;;;;52.53;48.75;;;;;;;;;;5064604;28;20067;-74
2024/01/02 05:44:16;;;;;;;49.58;46.50;;;;;;;;;;5064819;28;20044;-74
2024/01/02 05:46:48;;;;;;;49.53;46.10;;;;;;;;;;5063522;28;20056;-74
2024/01/02 05:49:19;;;;;;;49.40;46.13;;;;;;;;;;5064998;28;20044;-74
2024/01/02 05:51:50;;;;;;;46.28;43.17;;;;;;;;;;5061360;28;20052;-74
2024/01/02 05:54:21;;;;;;;55.67;52.22;;;;;;;;;;5061659;28;20779;-74
2024/01/02 05:56:52;;;;;;;56.25;52.33;;;;;;;;;;5061469;28;20059;-74
2024/01/02 05:59:22;;;;;;;46.53;43.47;;;;;;;;;;5059710;28;20067;-74
2024/01/02 06:01:52;;;;;;;48.17;44.67;;;;;;;;;;5062004;28;20486;-74
2024/01/02 06:04:23;;;;;;;53.28;49.92;;;;;;;;;;5061309;28;20869;-74
2024/01/02 06:06:54;;;;;;;52.75;49.10;;;;;;;;;;5061199;28;20052;-74
2024/01/02 06:09:24;;;;;;;48.80;45.65;;;;;;;;;;5061753;28;20064;-74
2024/01/02 06:11:54;;;;;;;43.97;41.08;;;;;;;;;;5060610;28;20048;-74
2024/01/02 06:14:25;;;;;;;50.20;47.00;;;;;;;;;;5059802;28;20056;-74
2024/01/02 06:16:55;;;;;;;57.13;53.30;;;;;;;;;;5060897;28;20052;-74
2024/01/02 06:19:26;;;;;;;66.35;61.95;;;;;;;;;;5059717;28;20041;-73
2024/01/02 06:21:56;;;;;;;44.38;41.33;;;;;;;;;;5060870;28;20518;-75
2024/01/02 06:24:29;;;;;;;50.88;47.80;;;;;;;;;;5060615;28;20064;-76
2024/01/02 06:27:00;;;;;;;53.30;49.78;;;;;;;;;;5061000;28;20522;-74
2024/01/02 06:29:30;;;;;;;53.92;50.55;;;;;;;;;;5060864;28;20052;-74
2024/01/02 06:32:02;;;;;;;45.58;42.60;;;;;;;;;;5059743;28;20522;-74
2024/01/02 06:34:33;;;;;;;44.05;41.10;;;;;;;;;;5061011;28;20055;-74
2024/01/02 06:37:04;;;;;;;38.72;36.35;;;;;;;;;;5060942;28;20500;-74
2024/01/02 06:39:35;;;;;;;43.45;40.13;;;;;;;;;;5060761;28;20041;-74
2024/01/02 06:42:05;;;;;;;40.97;38.05;;;;;;;;;;5060229;28;20059;-74
2024/01/02 06:44:35;;;;;;;41.92;39.10;;;;;;;;;;5060795;28;20380;-74
2024/01/02 06:47:06;;;;;;;38.70;35.70;;;;;;;;;;5058944;28;20048;-74
2024/01/02 06:49:36;;;;;;;36.30;33.45;;;;;;;;;;5060298;28;20048;-74
2024/01/02 06:52:07;;;;;;;37.65;35.10;;;;;;;;;;5060773;28;20407;-74
2024/01/02 06:54:37;;;;;;;33.53;31.15;;;;;;;;;;5060284;28;20051;-74
2024/01/02 06:57:08;;;;;;;35.20;32.60;;;;;;;;;;5059769;28;20076;-74
2024/01/02 06:59:39;;;;;;;36.97;34.33;;;;;;;;;;5060235;28;20416;-74
2024/01/02 07:02:10;;;;;;;35.90;33.30;;;;;;;;;;5060356;28;20051;-74
2024/01/02 07:04:40;;;;;;;38.75;35.97;;;;;;;;;;5060191;28;20052;-74
2024/01/02 07:07:11;;;;;;;39.42;36.50;;;;;;;;;;5059025;28;20048;-74
2024/01/02 07:09:42;;;;;;;39.72;37.08;;;;;;;;;;5060466;28;20055;-74
2024/01/02 07:12:12;;;;;;;42.85;39.80;;;;;;;;;;5060518;28;20045;-75
2024/01/02 07:14:43;;;;;;;38.22;35.72;;;;;;;;;;5060022;28;20419;-74
2024/01/02 07:17:19;;;;;;;40.60;38.05;;;;;;;;;;5060083;28;20048;-74
2024/01/02 07:19:51;;;;;;;37.35;34.85;;;;;;;;;;5059908;28;20629;-74
2024/01/02 07:22:22;;;;;;;39.60;37.05;;;;;;;;;;5060320;28;20037;-74
2024/01/02 07:24:53;;;;;;;38.08;35.40;;;;;;;;;;5059617;28;20518;-74
2024/01/02 07:27:23;;;;;;;38.60;35.95;;;;;;;;;;5059964;28;20115;-74
2024/01/02 07:29:54;;;;;;;40.38;37.70;;;;;;;;;;5059471;28;20507;-74
2024/01/02 07:32:25;;;;;;;40.92;38.13;;;;;;;;;;5059784;28;20051;-75
2024/01/02 07:34:56;;;;;;;43.00;40.00;;;;;;;;;;5059665;28;20060;-74
2024/01/02 07:37:26;;;;;;;39.25;36.63;;;;;;;;;;5059491;28;21131;-74
2024/01/02 07:39:58;;;;;;;43.42;40.55;;;;;;;;;;5059958;28;20523;-74
2024/01/02 07:42:31;;;;;;;35.25;32.75;;;;;;;;;;5059582;28;20537;-74
2024/01/02 07:45:01;;;;;;;39.22;36.60;;;;;;;;;;5059654;28;20049;-74
2024/01/02 07:47:31;;;;;;;37.67;35.00;;;;;;;;;;5059550;28;20506;-74
2024/01/02 07:50:04;;;;;;;39.85;37.17;;;;;;;;;;5059393;28;20048;-74
2024/01/02 07:52:35;;;;;;;38.35;35.67;;;;;;;;;;5059359;28;20411;-73
2024/01/02 07:55:09;;;;;;;36.33;33.85;;;;;;;;;;5057965;28;20059;-73
2024/01/02 07:57:40;;;;;;;36.30;33.63;;;;;;;;;;5058867;28;20052;-74
2024/01/02 08:00:11;;;;;;;36.17;33.60;;;;;;;;;;5059398;28;20045;-74
2024/01/02 08:02:42;;;;;;;42.22;39.42;;;;;;;;;;5059414;28;20033;-74
2024/01/02 08:05:12;;;;;;;36.47;33.63;;;;;;;;;;5059363;28;20048;-74
2024/01/02 08:07:43;;;;;;;39.45;36.65;;;;;;;;;;5059050;28;20508;-74
2024/01/02 08:10:13;;;;;;;37.90;34.80;;;;;;;;;;5059087;28;20045;-74
2024/01/02 08:12:45;;;;;;;44.13;41.20;;;;;;;;;;5058510;28;20060;-74
2024/01/02 08:15:15;;;;;;;41.22;38.40;;;;;;;;;;5058493;28;20045;-74
2024/01/02 08:18:01;;;;;;;42.40;39.55;;;;;;;;;;5059132;28;20044;-74
2024/01/02 08:20:32;;;;;;;49.03;45.72;;;;;;;;;;5059489;28;20411;-74
2024/01/02 08:23:05;;;;;;;48.55;45.60;;;;;;;;;;5058767;28;20049;-73
2024/01/02 08:25:36;;;;;;;46.58;43.30;;;;;;;;;;5059234;28;20044;-74
2024/01/02 08:28:06;;;;;;;44.60;41.28;;;;;;;;;;5058755;28;20064;-74
2024/01/02 08:30:37;;;;;;;41.08;38.28;;;;;;;;;;5059082;28;20862;-74
2024/01/02 08:33:09;;;;;;;43.70;40.67;;;;;;;;;;5057462;28;20053;-74
2024/01/02 08:35:40;;;;;;;38.53;35.90;;;;;;;;;;5058467;28;20061;-74
2024/01/02 08:38:10;;;;;;;38.80;36.08;;;;;;;;;;5059581;28;20040;-82
2024/01/02 08:40:41;;;;;;;43.70;40.83;;;;;;;;;;5058952;28;20044;-74
2024/01/02 08:43:11;;;;;;;44.28;40.75;;;;;;;;;;5058984;28;20056;-73
2024/01/02 08:45:46;;;;;;;55.58;51.88;;;;;;;;;;5058996;28;20503;-73
2024/01/02 08:48:16;;;;;;;62.40;58.22;;;;;;;;;;5059290;28;20056;-74
2024/01/02 08:50:47;;;;;;;64.10;60.10;;;;;;;;;;5058959;28;20048;-74
2024/01/02 08:53:18;;;;;;;69.68;65.18;;;;;;;;;;5058117;28;20059;-74
2024/01/02 08:55:49;;;;;;;62.17;58.15;;;;;;;;;;5058746;28;20036;-74
2024/01/02 08:58:19;;;;;;;63.22;59.20;;;;;;;;;;5058452;28;20052;-73
2024/01/02 09:00:50;;;;;;;62.20;58.13;;;;;;;;;;5058449;28;20430;-73
2024/01/02 09:03:21;;;;;;;64.47;60.25;;;;;;;;;;5058591;28;20045;-74
2024/01/02 09:05:52;;;;;;;57.63;53.97;;;;;;;;;;5057782;28;20036;-74
2024/01/02 09:08:22;;;;;;;54.50;51.00;;;;;;;;;;5057364;28;20059;-74
2024/01/02 09:10:53;;;;;;;48.80;45.55;;;;;;;;;;5058296;28;20613;-74
2024/01/02 09:13:24;;;;;;;50.60;47.35;;;;;;;;;;5058498;28;20048;-75
2024/01/02 09:15:54;;;;;;;60.50;56.30;;;;;;;;;;5059047;28;20048;-74
2024/01/02 09:18:26;;;;;;;52.15;48.70;;;;;;;;;;5057291;28;20048;-74
2024/01/02 09:20:57;;;;;;;51.25;48.03;;;;;;;;;;5058715;28;20496;-73
2024/01/02 09:23:28;;;;;;;53.72;49.88;;;;;;;;;;5058180;28;20515;-74
2024/01/02 09:26:01;;;;;;;59.58;55.45;;;;;;;;;;5058928;28;20055;-73
2024/01/02 09:28:34;;;;;;;54.47;51.03;;;;;;;;;;5061829;28;20045;-74
2024/01/02 09:31:05;;;;;;;59.45;55.40;;;;;;;;;;5061811;28;20621;-75
2024/01/02 09:33:38;;;;;;;54.70;50.90;;;;;;;;;;5062870;28;21151;-73
2024/01/02 09:36:08;;;;;;;58.08;54.17;;;;;;;;;;5061911;28;20067;-74
2024/01/02 09:38:39;;;;;;;59.80;55.72;;;;;;;;;;5061576;28;20429;-74
2024/01/02 09:41:40;;;;;;;60.17;56.20;;;;;;;;;;5061866;28;20052;-74
2024/01/02 09:44:36;;;;;;;55.58;51.88;;;;;;;;;;5061435;28;20059;-73
2024/01/02 09:47:18;;;;;;;57.28;53.35;;;;;;;;;;5061941;28;20044;-73
2024/01/02 09:49:59;;;;;;;56.78;53.17;;;;;;;;;;5062478;28;20047;-73
2024/01/02 09:52:58;;;;;;;64.40;60.35;;;;;;;;;;5061682;28;20040;-73
2024/01/02 09:55:45;;;;;;;84.45;79.10;;;;;;;;;;5060437;28;20064;-73
2024/01/02 09:58:37;;;;;;;69.20;65.00;;;;;;;;;;5061779;28;20044;-76
2024/01/02 10:01:42;;;;;;;74.32;69.80;;;;;;;;;;5061317;28;20036;-73
2024/01/02 10:04:44;;;;;;;62.47;58.13;;;;;;;;;;5060215;28;20130;-73
2024/01/02 10:07:51;;;;;;;64.80;59.97;;;;;;;;;;5061435;28;20059;-73
2024/01/02 10:10:59;;;;;;;52.88;49.28;;;;;;;;;;5060873;28;20407;-72
2024/01/02 10:13:51;;;;;;;47.30;44.08;;;;;;;;;;5061209;28;20104;-75
2024/01/02 10:17:03;;;;;;;46.92;43.47;;;;;;;;;;5060199;28;20044;-73
2024/01/02 10:19:40;;;;;;;47.78;44.63;;;;;;;;;;5060263;28;20068;-74
2024/01/02 10:22:31;;;;;;;46.33;43.08;;;;;;;;;;5061232;28;20044;-73
2024/01/02 10:25:10;;;;;;;48.85;45.05;;;;;;;;;;5061709;28;20099;-73
2024/01/02 10:28:12;;;;;;;46.92;43.85;;;;;;;;;;5060767;28;20078;-74
2024/01/02 10:31:04;;;;;;;42.67;39.78;;;;;;;;;;5061310;28;20056;-73
2024/01/02 10:33:39;;;;;;;62.85;58.83;;;;;;;;;;5061906;28;20507;-73
2024/01/02 10:36:16;;;;;;;52.28;48.72;;;;;;;;;;5061707;28;20052;-77
2024/01/02 10:39:26;;;;;;;78.15;73.30;;;;;;;;;;5061508;28;20044;-73
2024/01/02 10:42:29;;;;;;;105.90;99.15;;;;;;;;;;5061294;28;20052;-74
2024/01/02 10:45:14;;;;;;;95.85;89.82;;;;;;;;;;5059982;28;20060;-74
2024/01/02 10:47:56;;;;;;;96.18;90.07;;;;;;;;;;5062137;28;20044;-73
2024/01/02 10:50:38;;;;;;;65.55;61.35;;;;;;;;;;5059706;28;20053;-74
2024/01/02 10:53:09;;;;;;;;;;;;;;;;;;5061097;28;20052;-73
2024/01/02 10:55:52;;;;;;;44.03;40.78;;;;;;;;;;5061488;28;19924;-73
2024/01/02 10:58:30;;;;;;;55.97;52.00;;;;;;;;;;5061160;28;20055;-81
2024/01/02 11:01:09;;;;;;;41.70;38.35;;;;;;;;;;5061410;28;20509;-73
2024/01/02 11:03:55;;;;;;;49.47;46.38;;;;;;;;;;5061169;28;20055;-74
2024/01/02 11:07:03;;;;;;;42.08;39.22;;;;;;;;;;5061409;28;20044;-74
2024/01/02 11:09:55;;;;;;;42.17;39.47;;;;;;;;;;5058645;28;20044;-74
2024/01/02 11:12:34;;;;;;;43.22;40.47;;;;;;;;;;5059434;28;20056;-74
2024/01/02 11:15:11;;;;;;;44.45;41.13;;;;;;;;;;5059692;28;20412;-74
2024/01/02 11:17:43;;;;;;;43.55;40.78;;;;;;;;;;5060746;28;20052;-73
2024/01/02 11:20:21;;;;;;;44.33;41.70;;;;;;;;;;5060318;28;20052;-74
2024/01/02 11:23:01;;;;;;;36.55;34.33;;;;;;;;;;5059597;28;20431;-73
2024/01/02 11:25:36;;;;;;;31.88;29.75;;;;;;;;;;5063367;28;20048;-75
2024/01/02 11:28:14;;;;;;;23.95;22.45;;;;;;;;;;5063548;28;20507;-75
2024/01/02 11:30:51;;;;;;;31.17;28.80;;;;;;;;;;5061229;28;20068;-75
2024/01/02 11:33:46;;;;;;;33.75;31.40;;;;;;;;;;5062531;28;20052;-74
2024/01/02 11:36:40;;;;;;;30.75;28.75;;;;;;;;;;5062190;28;20052;-75
2024/01/02 11:39:13;;;;;;;27.25;25.50;;;;;;;;;;5062457;28;20060;-76
2024/01/02 11:41:51;;;;;;;27.10;25.35;;;;;;;;;;5062739;28;20052;-75
2024/01/02 11:44:50;;;;;;;29.42;27.73;;;;;;;;;;5062356;28;20047;-75
2024/01/02 11:47:31;;;;;;;21.95;20.65;;;;;;;;;;5062352;28;20392;-74
2024/01/02 11:50:07;;;;;;;24.02;22.58;;;;;;;;;;5061176;28;20432;-75
2024/01/02 11:52:58;;;;;;;21.25;19.75;;;;;;;;;;5062211;28;20669;-74
2024/01/02 11:55:36;;;;;;;24.98;23.10;;;;;;;;;;5062695;28;20416;-75
2024/01/02 11:58:18;;;;;;;25.40;23.83;;;;;;;;;;5061935;28;20052;-75
2024/01/02 12:00:56;;;;;;;27.85;25.38;;;;;;;;;;5062647;28;20048;-75
2024/01/02 12:03:46;;;;;;;21.80;20.27;;;;;;;;;;5062520;28;20057;-75
2024/01/02 12:06:33;;;;;;;23.10;21.50;;;;;;;;;;5062487;28;20071;-75
2024/01/02 12:09:11;;;;;;;18.42;17.33;;;;;;;;;;5062835;28;20938;-75
2024/01/02 12:11:49;;;;;;;24.65;23.27;;;;;;;;;;5062758;28;20059;-75
2024/01/02 12:14:36;;;;;;;21.30;19.80;;;;;;;;;;5063374;28;20522;-81
2024/01/02 12:17:12;;;;;;;18.38;17.27;;;;;;;;;;5063054;28;20047;-76
2024/01/02 12:20:07;;;;;;;23.02;21.45;;;;;;;;;;5062809;28;20045;-75
2024/01/02 12:22:38;;;;;;;24.42;22.83;;;;;;;;;;5062314;28;20041;-75
2024/01/02 12:25:10;;;;;;;22.75;21.40;;;;;;;;;;5062638;28;20049;-75
2024/01/02 12:27:46;;;;;;;21.50;20.02;;;;;;;;;;5062000;28;20045;-75
2024/01/02 12:30:56;;;;;;;21.33;20.05;;;;;;;;;;5061753;28;20052;-75
2024/01/02 12:33:37;;;;;;;21.35;20.10;;;;;;;;;;5062226;28;20426;-76
2024/01/02 12:36:24;;;;;;;18.77;17.33;;;;;;;;;;5062017;28;20056;-75
2024/01/02 12:39:05;;;;;;;22.05;20.70;;;;;;;;;;5059963;28;20507;-75
2024/01/02 12:41:42;;;;;;;24.13;22.55;;;;;;;;;;5061487;28;20036;-78
2024/01/02 12:44:14;;;;;;;27.00;24.98;;;;;;;;;;5061634;28;20048;-75
2024/01/02 12:47:09;;;;;;;40.35;37.85;;;;;;;;;;5061355;28;20393;-73
2024/01/02 12:49:55;;;;;;;35.58;33.42;;;;;;;;;;5061740;28;20044;-72
2024/01/02 12:52:30;;;;;;;23.67;22.00;;;;;;;;;;5061968;28;20425;-76
2024/01/02 12:55:03;;;;;;;20.83;19.48;;;;;;;;;;5062383;28;20049;-76
2024/01/02 12:57:37;;;;;;;19.05;17.83;;;;;;;;;;5061473;28;20063;-75
2024/01/02 13:00:10;;;;;;;22.40;21.02;;;;;;;;;;5061583;28;20535;-75
2024/01/02 13:02:41;;;;;;;29.50;27.55;;;;;;;;;;5065882;28;20059;-75
2024/01/02 13:05:13;;;;;;;22.33;20.77;;;;;;;;;;5065425;28;20052;-74
2024/01/02 13:07:44;;;;;;;23.80;22.40;;;;;;;;;;5064766;28;20517;-75
2024/01/02 13:10:15;;;;;;;21.85;20.45;;;;;;;;;;5066023;28;20055;-75
2024/01/02 13:12:47;;;;;;;21.13;19.75;;;;;;;;;;5064995;28;20052;-74
2024/01/02 13:15:19;;;;;;;78.97;74.22;;;;;;;;;;5065080;28;20048;-84
2024/01/02 13:17:50;;;;;;;20.85;19.65;;;;;;;;;;5065706;28;20052;-76
2024/01/02 13:20:21;;;;;;;18.90;17.67;;;;;;;;;;5064850;28;20049;-76
2024/01/02 13:22:56;;;;;;;22.88;21.55;;;;;;;;;;5065641;28;20067;-77
2024/01/02 13:25:27;;;;;;;23.55;22.25;;;;;;;;;;5064685;28;20692;-75
2024/01/02 13:27:58;;;;;;;21.25;19.90;;;;;;;;;;5064949;28;20051;-76
2024/01/02 13:30:47;;;;;;;23.88;22.05;;;;;;;;;;5064545;28;20048;-76
2024/01/02 13:33:21;;;;;;;22.20;20.80;;;;;;;;;;5065594;28;20051;-76
2024/01/02 13:36:07;;;;;;;24.17;22.58;;;;;;;;;;5064534;28;20048;-77
2024/01/02 13:38:44;;;;;;;23.35;21.92;;;;;;;;;;5064697;28;20044;-75
2024/01/02 13:41:15;;;;;;;19.27;18.13;;;;;;;;;;5063119;28;20060;-75
2024/01/02 13:43:47;;;;;;;19.70;18.55;;;;;;;;;;5064257;28;20056;-76
2024/01/02 13:46:24;;;;;;;16.70;15.70;;;;;;;;;;5064168;28;20056;-76
2024/01/02 13:48:58;;;;;;;24.02;22.63;;;;;;;;;;5065147;28;20040;-76
2024/01/02 13:51:30;;;;;;;21.48;20.17;;;;;;;;;;5064876;28;20048;-75
2024/01/02 13:54:07;;;;;;;16.27;15.27;;;;;;;;;;5063865;28;20041;-75
2024/01/02 13:56:48;;;;;;;17.30;15.90;;;;;;;;;;5063802;28;20052;-76
2024/01/02 13:59:32;;;;;;;26.42;24.63;;;;;;;;;;5063161;28;20052;-79
2024/01/02 14:02:14;;;;;;;20.38;19.15;;;;;;;;;;5064142;28;20056;-75
2024/01/02 14:04:45;;;;;;;21.20;19.90;;;;;;;;;;5064451;28;20052;-75
2024/01/02 14:07:16;;;;;;;23.05;21.48;;;;;;;;;;5064120;28;20056;-75
2024/01/02 14:09:47;;;;;;;24.33;22.90;;;;;;;;;;5064648;28;20058;-75
2024/01/02 14:12:18;;;;;;;22.58;21.17;;;;;;;;;;5062179;28;20409;-76
2024/01/02 14:14:55;;;;;;;20.95;19.75;;;;;;;;;;5063028;28;20399;-76
2024/01/02 14:17:32;;;;;;;21.85;20.33;;;;;;;;;;5062691;28;20060;-76
2024/01/02 14:20:10;;;;;;;21.40;20.13;;;;;;;;;;5064012;28;20045;-75
2024/01/02 14:22:47;;;;;;;25.15;23.70;;;;;;;;;;5064867;28;20771;-76
2024/01/02 14:25:34;;;;;;;22.50;21.15;;;;;;;;;;5063395;28;20044;-75
2024/01/02 14:28:07;;;;;;;25.65;24.05;;;;;;;;;;5063349;28;20045;-76
2024/01/02 14:30:43;;;;;;;22.17;20.85;;;;;;;;;;5063578;28;20052;-76
2024/01/02 14:33:22;;;;;;;22.10;20.63;;;;;;;;;;5063413;28;20052;-75
2024/01/02 14:35:59;;;;;;;26.33;24.77;;;;;;;;;;5063431;28;20145;-80
2024/01/02 14:39:11;;;;;;;25.77;24.20;;;;;;;;;;5062425;28;20048;-78
2024/01/02 14:42:00;;;;;;;18.02;16.83;;;;;;;;;;5062905;28;20048;-75
2024/01/02 14:44:36;;;;;;;21.60;20.27;;;;;;;;;;5062728;28;20049;-76
2024/01/02 14:47:25;;;;;;;17.77;16.45;;;;;;;;;;5063554;28;20526;-75
2024/01/02 14:50:01;;;;;;;19.92;18.55;;;;;;;;;;5063893;28;20411;-75
2024/01/02 14:53:08;;;;;;;25.02;23.65;;;;;;;;;;5063333;28;20051;-76
2024/01/02 14:55:55;;;;;;;21.63;20.35;;;;;;;;;;5057342;28;20064;-76
2024/01/02 14:58:50;;;;;;;15.68;14.73;;;;;;;;;;5063428;28;20048;-76
2024/01/02 15:01:45;;;;;;;20.50;19.38;;;;;;;;;;5063292;28;20376;-76